Time;durP1;ratioP1;P1;durP2;ratioP2;P2;SDS_P1;SDS_P2;PMS_P1;PMS_P2;Temp;Humidity;BMP_temperature;BMP_pressure;BME280_temperature;BME280_humidity;BME280_pressure;Samples;Min_cycle;Max_cycle;Signal;HPM_P1;HPM_P2
2021/04/02 00:00:14;;;;;;;4.97;3.57;;;14.10;99.90;;;;;;5013309;28;20201;-77
2021/04/02 00:02:40;;;;;;;5.20;4.17;;;14.10;99.90;;;;;;5010237;28;20709;-77
2021/04/02 00:05:07;;;;;;;6.80;3.60;;;14.00;99.90;;;;;;5012007;28;20245;-77
2021/04/02 00:07:33;;;;;;;6.27;3.97;;;13.90;99.90;;;;;;5013135;28;20229;-77
2021/04/02 00:09:58;;;;;;;6.20;3.63;;;13.80;99.90;;;;;;5013338;28;20616;-75
2021/04/02 00:12:24;;;;;;;4.80;4.40;;;13.80;99.90;;;;;;5013189;28;20258;-77
2021/04/02 00:14:50;;;;;;;7.27;4.20;;;13.80;99.90;;;;;;5013260;28;20199;-77
2021/04/02 00:17:16;;;;;;;6.30;4.20;;;13.70;99.90;;;;;;5011871;28;20684;-77
2021/04/02 00:19:41;;;;;;;6.13;4.40;;;13.70;99.90;;;;;;5012558;28;20185;-77
2021/04/02 00:22:07;;;;;;;5.73;4.17;;;13.60;99.90;;;;;;5013059;28;20167;-77
2021/04/02 00:24:33;;;;;;;7.70;4.10;;;13.50;99.90;;;;;;5011806;28;20286;-77
2021/04/02 00:26:58;;;;;;;7.03;4.00;;;13.40;99.90;;;;;;5012947;28;20202;-77
2021/04/02 00:29:24;;;;;;;6.33;4.30;;;13.40;99.90;;;;;;5013006;28;20251;-77
2021/04/02 00:31:50;;;;;;;8.73;4.43;;;13.30;99.90;;;;;;5012733;28;20181;-77
2021/04/02 00:34:16;;;;;;;6.57;4.27;;;13.20;99.90;;;;;;5012926;28;20574;-77
2021/04/02 00:36:41;;;;;;;6.67;4.17;;;13.10;99.90;;;;;;5011508;28;20185;-77
2021/04/02 00:39:07;;;;;;;5.83;4.70;;;13.00;99.90;;;;;;5012828;28;20175;-77
2021/04/02 00:41:32;;;;;;;9.17;4.27;;;13.00;99.90;;;;;;5012778;28;20200;-77
2021/04/02 00:43:58;;;;;;;7.87;4.20;;;12.90;99.90;;;;;;5012677;28;20543;-77
2021/04/02 00:46:24;;;;;;;8.27;4.30;;;12.90;99.90;;;;;;5012768;28;20186;-77
2021/04/02 00:48:50;;;;;;;6.30;4.63;;;12.90;99.90;;;;;;5012707;28;20171;-77
2021/04/02 00:51:28;;;;;;;7.63;5.10;;;12.90;99.90;;;;;;5011443;28;20537;-77
2021/04/02 00:53:54;;;;;;;6.60;5.07;;;13.00;99.90;;;;;;5012417;28;20680;-77
2021/04/02 00:56:20;;;;;;;7.07;5.00;;;13.00;99.90;;;;;;5040195;22;20258;-69
2021/04/02 00:58:47;;;;;;;6.40;4.90;;;13.00;99.90;;;;;;5048496;28;20209;-74
2021/04/02 01:01:15;;;;;;;8.27;5.00;;;12.90;99.90;;;;;;5051036;28;20578;-74
2021/04/02 01:03:42;;;;;;;6.80;5.40;;;13.00;99.90;;;;;;5050920;28;20261;-74
2021/04/02 01:06:17;;;;;;;7.63;5.80;;;13.10;99.90;;;;;;5051030;28;20171;-74
2021/04/02 01:08:43;;;;;;;9.83;6.63;;;13.10;99.90;;;;;;5032914;28;20257;-75
2021/04/02 01:11:15;;;;;;;9.67;6.03;;;13.10;99.90;;;;;;5036388;28;20194;-74
2021/04/02 01:13:51;;;;;;;10.93;6.40;;;13.20;99.90;;;;;;5035059;28;20186;-74
2021/04/02 01:16:18;;;;;;;12.50;6.93;;;13.20;99.90;;;;;;5034899;28;20643;-74
2021/04/02 01:19:05;;;;;;;9.63;7.53;;;13.20;99.90;;;;;;5034896;28;20179;-74
2021/04/02 01:21:53;;;;;;;17.80;8.07;;;13.30;99.90;;;;;;5034803;28;20293;-75
2021/04/02 01:24:22;;;;;;;15.30;7.53;;;13.30;99.90;;;;;;5035008;28;20166;-74
2021/04/02 01:27:10;;;;;;;11.80;5.93;;;13.30;99.90;;;;;;5034651;28;20261;-73
2021/04/02 01:29:53;;;;;;;9.00;5.97;;;13.20;99.90;;;;;;5034802;28;20179;-73
2021/04/02 01:32:25;;;;;;;8.23;5.53;;;13.10;99.90;;;;;;5034757;28;20181;-74
2021/04/02 01:34:56;;;;;;;11.83;5.83;;;13.00;99.90;;;;;;5030868;28;20183;-74
2021/04/02 01:37:31;;;;;;;15.13;6.23;;;12.80;99.90;;;;;;5027589;28;20213;-74
2021/04/02 01:40:00;;;;;;;7.93;5.10;;;12.80;99.90;;;;;;5032424;28;20294;-74
2021/04/02 01:42:27;;;;;;;8.30;5.47;;;12.60;99.90;;;;;;5032189;28;20645;-74
2021/04/02 01:44:54;;;;;;;10.60;6.00;;;12.60;99.90;;;;;;5033534;28;20170;-74
2021/04/02 01:47:22;;;;;;;9.07;5.83;;;12.60;99.90;;;;;;5033178;28;20226;-74
2021/04/02 01:49:50;;;;;;;8.40;5.10;;;12.50;99.90;;;;;;5035559;28;20175;-74
2021/04/02 01:52:18;;;;;;;10.93;5.63;;;12.40;99.90;;;;;;5033919;28;20174;-74
2021/04/02 01:54:44;;;;;;;11.00;5.30;;;12.20;99.90;;;;;;5036533;28;20176;-74
2021/04/02 01:57:11;;;;;;;8.70;6.00;;;12.10;99.90;;;;;;5033473;28;20217;-74
2021/04/02 01:59:38;;;;;;;7.90;5.30;;;12.00;99.90;;;;;;5033066;28;20174;-75
2021/04/02 02:02:06;;;;;;;11.13;5.90;;;11.90;99.90;;;;;;5033515;28;20202;-74
2021/04/02 02:04:33;;;;;;;9.37;6.10;;;11.90;99.90;;;;;;5033306;28;20167;-74
2021/04/02 02:07:00;;;;;;;9.77;5.87;;;11.90;99.90;;;;;;5034104;28;20186;-73
2021/04/02 02:09:38;;;;;;;15.07;5.57;;;11.80;99.90;;;;;;5017983;28;20645;-73
2021/04/02 02:12:07;;;;;;;9.90;5.53;;;11.80;99.90;;;;;;5034663;28;20316;-73
2021/04/02 02:14:36;;;;;;;6.53;5.50;;;11.70;99.90;;;;;;5034435;28;20201;-73
2021/04/02 02:17:05;;;;;;;7.57;5.73;;;11.70;99.90;;;;;;5034460;28;20280;-73
2021/04/02 02:19:35;;;;;;;6.77;5.47;;;11.60;99.90;;;;;;5033876;28;20262;-74
2021/04/02 02:22:06;;;;;;;7.43;5.77;;;11.60;99.90;;;;;;5032904;28;20297;-74
2021/04/02 02:24:34;;;;;;;8.47;5.93;;;11.40;99.90;;;;;;5035195;28;20166;-75
2021/04/02 02:27:01;;;;;;;13.53;6.00;;;11.40;99.90;;;;;;5031062;28;20688;-74
2021/04/02 02:29:27;;;;;;;9.33;5.97;;;11.40;99.90;;;;;;5033484;28;20171;-74
2021/04/02 02:31:53;;;;;;;11.50;5.80;;;11.30;99.90;;;;;;5033471;28;20170;-75
2021/04/02 02:34:19;;;;;;;9.20;5.80;;;11.30;99.90;;;;;;5032942;28;20179;-74
2021/04/02 02:36:46;;;;;;;7.70;5.23;;;11.20;99.90;;;;;;5033945;28;20209;-73
2021/04/02 02:39:15;;;;;;;11.80;5.57;;;11.10;99.90;;;;;;5034466;28;20178;-74
2021/04/02 02:41:42;;;;;;;10.63;6.00;;;11.00;99.90;;;;;;5032722;28;20215;-74
2021/04/02 02:44:08;;;;;;;8.93;5.23;;;10.90;99.90;;;;;;5032701;28;20182;-74
2021/04/02 02:46:34;;;;;;;14.23;6.23;;;10.80;99.90;;;;;;5032693;28;20197;-73
2021/04/02 02:49:20;;;;;;;10.17;5.60;;;10.70;99.90;;;;;;5032711;28;20181;-74
2021/04/02 02:51:46;;;;;;;10.33;5.63;;;10.80;99.90;;;;;;5032718;28;20205;-72
2021/04/02 02:54:20;;;;;;;13.00;7.03;;;10.80;99.90;;;;;;5033924;28;20171;-73
2021/04/02 02:56:49;;;;;;;9.00;6.03;;;10.80;99.90;;;;;;5032353;28;20242;-72
2021/04/02 02:59:17;;;;;;;16.13;6.83;;;10.90;99.90;;;;;;5032497;28;20175;-73
2021/04/02 03:01:45;;;;;;;9.33;5.87;;;11.00;99.90;;;;;;5032283;28;20281;-73
2021/04/02 03:04:14;;;;;;;8.57;5.90;;;10.90;99.90;;;;;;5032312;28;20182;-73
2021/04/02 03:06:41;;;;;;;12.33;6.27;;;10.80;99.90;;;;;;5032301;28;20256;-73
2021/04/02 03:09:10;;;;;;;6.87;5.87;;;10.90;99.90;;;;;;5032333;28;20170;-73
2021/04/02 03:11:37;;;;;;;9.17;6.70;;;10.80;99.90;;;;;;5032301;28;20179;-72
2021/04/02 03:14:05;;;;;;;9.27;6.53;;;10.90;99.90;;;;;;5032219;28;20171;-73
2021/04/02 03:16:32;;;;;;;11.90;7.00;;;10.90;99.90;;;;;;5032089;28;20177;-73
2021/04/02 03:19:00;;;;;;;10.13;5.97;;;10.80;99.90;;;;;;5032168;28;20704;-73
2021/04/02 03:21:26;;;;;;;8.00;6.10;;;10.80;99.90;;;;;;5032047;28;20194;-72
2021/04/02 03:23:53;;;;;;;12.50;7.20;;;10.90;99.90;;;;;;5032527;28;20582;-73
2021/04/02 03:26:20;;;;;;;12.73;6.30;;;10.80;99.90;;;;;;5034464;28;20174;-71
2021/04/02 03:28:48;;;;;;;9.87;5.80;;;10.80;99.90;;;;;;5033259;28;20178;-73
2021/04/02 03:31:16;;;;;;;11.20;5.97;;;10.70;99.90;;;;;;5032431;28;20257;-73
2021/04/02 03:33:48;;;;;;;10.87;6.60;;;10.70;99.90;;;;;;5033151;28;20178;-73
2021/04/02 03:36:14;;;;;;;9.73;7.00;;;10.60;99.90;;;;;;5033059;28;20178;-73
2021/04/02 03:38:44;;;;;;;16.10;6.57;;;10.60;99.90;;;;;;5032953;28;20577;-73
2021/04/02 03:41:21;;;;;;;10.07;6.13;;;10.60;99.90;;;;;;5032843;28;20271;-74
2021/04/02 03:43:48;;;;;;;12.07;7.90;;;10.60;99.90;;;;;;5032718;28;20182;-74
2021/04/02 03:46:16;;;;;;;22.30;9.10;;;10.60;99.90;;;;;;5032814;28;20259;-74
2021/04/02 03:48:43;;;;;;;13.97;9.60;;;10.70;99.90;;;;;;5033110;28;20198;-74
2021/04/02 03:51:13;;;;;;;17.37;9.90;;;10.80;99.90;;;;;;5032733;28;20214;-74
2021/04/02 03:53:43;;;;;;;17.20;8.77;;;10.90;99.90;;;;;;5032749;28;20177;-74
2021/04/02 03:56:13;;;;;;;12.63;7.57;;;10.80;99.90;;;;;;5032705;28;20182;-73
2021/04/02 03:58:44;;;;;;;11.93;8.47;;;10.70;99.90;;;;;;5032362;28;20210;-74
2021/04/02 04:01:13;;;;;;;13.37;8.23;;;10.60;99.90;;;;;;5028323;28;20233;-74
2021/04/02 04:03:44;;;;;;;14.93;8.17;;;10.60;99.90;;;;;;5007028;28;20554;-74
2021/04/02 04:06:13;;;;;;;15.93;8.60;;;10.50;99.90;;;;;;5030685;28;20179;-74
2021/04/02 04:08:41;;;;;;;13.67;8.00;;;10.50;99.90;;;;;;5030406;28;20187;-74
2021/04/02 04:11:10;;;;;;;12.03;8.20;;;10.50;99.90;;;;;;5031158;28;20600;-73
2021/04/02 04:13:37;;;;;;;19.87;9.37;;;10.40;99.90;;;;;;5032332;28;20196;-73
2021/04/02 04:16:04;;;;;;;13.20;8.27;;;10.40;99.90;;;;;;5032939;28;20190;-72
2021/04/02 04:18:35;;;;;;;15.97;8.93;;;10.40;99.90;;;;;;5032182;28;20202;-72
2021/04/02 04:21:07;;;;;;;13.33;8.63;;;10.40;99.90;;;;;;5032186;28;20285;-73
2021/04/02 04:23:35;;;;;;;14.87;8.87;;;10.30;99.90;;;;;;5035840;28;20171;-73
2021/04/02 04:26:01;;;;;;;18.10;8.43;;;10.30;99.90;;;;;;5032137;28;20236;-73
2021/04/02 04:28:28;;;;;;;23.67;14.10;;;10.30;99.90;;;;;;5033395;28;20198;-73
2021/04/02 04:30:58;;;;;;;14.83;8.83;;;10.20;99.90;;;;;;5033355;28;20186;-73
2021/04/02 04:33:26;;;;;;;12.77;8.40;;;10.20;99.90;;;;;;5033675;28;20264;-74
2021/04/02 04:35:54;;;;;;;18.97;9.30;;;10.10;99.90;;;;;;5033256;28;20548;-73
2021/04/02 04:38:22;;;;;;;13.37;9.00;;;10.10;99.90;;;;;;5030135;28;20206;-73
2021/04/02 04:40:51;;;;;;;16.63;9.80;;;10.00;99.90;;;;;;5031552;28;20622;-73
2021/04/02 04:43:18;;;;;;;16.43;9.27;;;10.10;99.90;;;;;;5031847;28;20320;-74
2021/04/02 04:45:43;;;;;;;12.80;8.97;;;10.00;99.90;;;;;;5031984;28;20536;-73
2021/04/02 04:48:10;;;;;;;18.83;9.07;;;9.90;99.90;;;;;;5028864;28;20201;-73
2021/04/02 04:50:37;;;;;;;14.00;8.30;;;9.80;99.90;;;;;;5030955;28;20691;-73
2021/04/02 04:53:31;;;;;;;14.70;8.93;;;9.70;99.90;;;;;;5031545;28;20242;-73
2021/04/02 04:56:03;;;;;;;16.30;9.00;;;9.70;99.90;;;;;;5020967;28;20212;-74
2021/04/02 04:58:32;;;;;;;13.83;9.80;;;9.60;99.90;;;;;;5015647;28;20214;-73
2021/04/02 05:01:00;;;;;;;16.00;9.47;;;9.60;99.90;;;;;;5014813;28;20216;-73
2021/04/02 05:03:27;;;;;;;13.73;8.67;;;9.50;99.90;;;;;;5018626;28;20273;-73
2021/04/02 05:05:56;;;;;;;19.57;9.57;;;9.50;99.90;;;;;;5014889;28;20213;-73
2021/04/02 05:08:27;;;;;;;14.03;8.10;;;9.50;99.90;;;;;;5017245;28;20278;-73
2021/04/02 05:10:55;;;;;;;14.77;8.33;;;9.60;99.90;;;;;;5015626;28;20185;-73
2021/04/02 05:13:23;;;;;;;15.90;7.97;;;9.50;99.90;;;;;;5026714;28;20193;-73
2021/04/02 05:15:50;;;;;;;13.87;8.70;;;9.50;99.90;;;;;;5031439;28;20194;-73
2021/04/02 05:18:16;;;;;;;15.87;8.17;;;9.50;99.90;;;;;;5032808;28;20761;-73
2021/04/02 05:20:44;;;;;;;17.80;8.47;;;9.50;99.90;;;;;;5032729;28;20561;-73
2021/04/02 05:23:12;;;;;;;16.67;11.10;;;9.60;99.90;;;;;;5016877;28;20189;-73
2021/04/02 05:25:38;;;;;;;22.80;14.00;;;9.70;99.90;;;;;;5014258;28;20633;-73
2021/04/02 05:28:05;;;;;;;32.57;16.97;;;9.80;99.90;;;;;;5014043;28;20210;-73
2021/04/02 05:30:32;;;;;;;26.87;16.97;;;9.80;99.90;;;;;;5029482;28;20182;-72
2021/04/02 05:32:58;;;;;;;40.97;20.93;;;9.90;99.90;;;;;;5028595;28;20658;-72
2021/04/02 05:35:24;;;;;;;48.90;23.30;;;10.00;99.90;;;;;;5012190;28;20267;-72
2021/04/02 05:37:50;;;;;;;42.97;23.23;;;10.10;99.90;;;;;;5029546;28;20234;-73
2021/04/02 05:40:16;;;;;;;44.87;23.93;;;10.20;99.90;;;;;;5032913;28;20202;-72
2021/04/02 05:42:54;;;;;;;48.47;22.70;;;10.30;99.90;;;;;;5031324;28;20186;-72
2021/04/02 05:45:22;;;;;;;44.00;23.63;;;10.40;99.90;;;;;;5031226;28;20768;-72
2021/04/02 05:47:52;;;;;;;45.47;25.13;;;10.50;99.90;;;;;;5032767;28;20199;-73
2021/04/02 05:50:19;;;;;;;45.00;23.33;;;10.50;99.90;;;;;;5032802;28;20210;-75
2021/04/02 05:52:48;;;;;;;46.33;26.67;;;10.50;99.90;;;;;;5032610;28;20179;-73
2021/04/02 05:55:16;;;;;;;50.00;24.43;;;10.60;99.90;;;;;;5035064;28;20569;-73
2021/04/02 05:57:43;;;;;;;51.80;30.50;;;10.60;99.90;;;;;;5034850;28;20876;-73
2021/04/02 06:00:09;;;;;;;46.63;25.83;;;10.60;99.90;;;;;;5036089;28;20194;-72
2021/04/02 06:02:35;;;;;;;48.80;27.13;;;10.70;99.90;;;;;;5035987;28;20186;-73
2021/04/02 06:05:01;;;;;;;54.97;27.97;;;10.70;99.90;;;;;;5037311;28;20236;-73
2021/04/02 06:07:28;;;;;;;48.07;28.03;;;10.80;99.90;;;;;;5036322;28;20198;-74
2021/04/02 06:09:54;;;;;;;45.53;26.80;;;10.80;99.90;;;;;;5035978;28;20178;-74
2021/04/02 06:12:24;;;;;;;50.87;27.00;;;10.90;99.90;;;;;;5036107;28;20174;-74
2021/04/02 06:14:50;;;;;;;47.23;26.97;;;10.90;99.90;;;;;;5032175;28;20188;-72
2021/04/02 06:17:17;;;;;;;49.87;28.47;;;11.00;99.90;;;;;;5027650;28;20199;-72
2021/04/02 06:19:43;;;;;;;51.80;28.87;;;11.10;99.90;;;;;;5031851;28;20233;-73
2021/04/02 06:22:09;;;;;;;52.93;29.33;;;11.10;99.90;;;;;;5038122;28;20207;-73
2021/04/02 06:24:36;;;;;;;48.20;29.63;;;11.20;99.90;;;;;;5021707;28;20625;-72
2021/04/02 06:27:04;;;;;;;52.33;30.23;;;11.20;99.90;;;;;;5035560;28;20233;-72
2021/04/02 06:29:30;;;;;;;53.47;29.20;;;11.20;99.90;;;;;;5035512;28;20179;-74
2021/04/02 06:31:57;;;;;;;53.23;30.27;;;11.30;99.90;;;;;;5035357;28;20579;-74
2021/04/02 06:34:29;;;;;;;54.70;31.00;;;11.30;99.90;;;;;;5035483;28;20186;-73
2021/04/02 06:37:02;;;;;;;53.80;29.67;;;11.30;99.90;;;;;;5035563;28;20656;-73
2021/04/02 06:39:32;;;;;;;50.70;28.67;;;11.40;99.90;;;;;;5036501;28;20182;-73
2021/04/02 06:42:01;;;;;;;51.57;28.57;;;11.40;99.90;;;;;;5036380;28;20205;-73
2021/04/02 06:44:31;;;;;;;55.07;30.23;;;11.50;99.90;;;;;;5026698;28;20238;-73
2021/04/02 06:46:58;;;;;;;49.30;29.03;;;11.50;99.90;;;;;;5034947;28;20203;-73
2021/04/02 06:49:24;;;;;;;54.23;29.00;;;11.50;99.90;;;;;;5035257;28;20181;-74
2021/04/02 06:51:52;;;;;;;53.80;30.47;;;11.60;99.90;;;;;;5035090;28;20183;-72
2021/04/02 06:54:20;;;;;;;55.20;31.67;;;11.60;99.90;;;;;;5033933;28;20193;-73
2021/04/02 06:56:50;;;;;;;53.07;29.67;;;11.70;99.90;;;;;;5034905;28;20268;-72
2021/04/02 06:59:19;;;;;;;95.90;48.13;;;11.70;99.90;;;;;;5081521;22;20225;-76
2021/04/02 07:01:51;;;;;;;59.60;32.50;;;11.80;99.90;;;;;;5073401;28;20564;-77
2021/04/02 07:04:20;;;;;;;54.97;32.03;;;11.90;99.90;;;;;;5074880;28;20175;-76
2021/04/02 07:06:48;;;;;;;55.40;31.10;;;11.90;99.90;;;;;;5073657;28;20655;-76
2021/04/02 07:09:18;;;;;;;58.83;31.37;;;12.00;99.90;;;;;;5072698;28;20251;-76
2021/04/02 07:11:47;;;;;;;60.67;31.00;;;12.00;99.90;;;;;;5074727;28;20180;-76
2021/04/02 07:14:14;;;;;;;50.87;30.07;;;12.10;99.90;;;;;;5074844;28;20178;-77
2021/04/02 07:16:40;;;;;;;52.03;31.33;;;12.10;99.90;;;;;;5072592;28;20188;-77
2021/04/02 07:19:06;;;;;;;54.37;30.00;;;12.20;99.90;;;;;;5074370;28;20193;-77
2021/04/02 07:21:33;;;;;;;54.37;29.87;;;12.30;99.90;;;;;;5074439;28;20193;-77
2021/04/02 07:24:00;;;;;;;51.23;30.17;;;12.40;99.90;;;;;;5074897;28;20177;-77
2021/04/02 07:26:27;;;;;;;56.23;32.03;;;12.40;99.90;;;;;;5074538;28;20666;-76
2021/04/02 07:28:53;;;;;;;54.07;31.43;;;12.30;99.90;;;;;;5074331;28;20189;-77
2021/04/02 07:31:21;;;;;;;54.67;30.67;;;12.30;99.90;;;;;;5077499;28;20518;-76
2021/04/02 07:33:48;;;;;;;53.63;31.77;;;12.30;99.90;;;;;;5078031;28;20173;-73
2021/04/02 07:36:16;;;;;;;58.93;31.33;;;12.40;99.90;;;;;;5081267;28;20546;-74
2021/04/02 07:38:48;;;;;;;55.27;30.53;;;12.40;99.90;;;;;;5076110;28;20226;-75
2021/04/02 07:41:17;;;;;;;53.50;30.30;;;12.50;99.90;;;;;;5080994;28;20212;-74
2021/04/02 07:43:53;;;;;;;57.97;31.33;;;12.60;99.90;;;;;;5090210;28;20259;-74
2021/04/02 07:46:30;;;;;;;54.23;31.47;;;12.60;99.90;;;;;;5074408;28;20167;-75
2021/04/02 07:49:07;;;;;;;58.67;31.97;;;12.70;99.90;;;;;;5081586;28;20191;-72
2021/04/02 07:51:47;;;;;;;50.53;31.37;;;12.90;99.90;;;;;;5073960;28;20212;-74
2021/04/02 07:54:20;;;;;;;58.37;32.83;;;12.90;99.90;;;;;;5081882;28;20172;-74
2021/04/02 07:56:57;;;;;;;57.97;31.83;;;13.00;99.90;;;;;;5081381;28;20173;-73
2021/04/02 07:59:47;;;;;;;55.47;31.13;;;13.10;99.90;;;;;;5081932;28;20218;-74
2021/04/02 08:02:29;;;;;;;54.00;32.33;;;13.20;99.90;;;;;;5076778;28;20207;-74
2021/04/02 08:04:57;;;;;;;58.90;32.10;;;13.20;99.90;;;;;;5068716;28;20171;-77
2021/04/02 08:07:36;;;;;;;65.23;34.37;;;13.20;99.90;;;;;;5091061;28;20169;-76
2021/04/02 08:10:19;;;;;;;55.50;32.17;;;13.20;99.90;;;;;;5082128;28;20193;-76
2021/04/02 08:12:44;;;;;;;52.40;32.17;;;13.20;99.90;;;;;;5073300;28;20214;-75
2021/04/02 08:15:16;;;;;;;58.93;32.07;;;13.30;99.90;;;;;;5074422;28;20173;-74
2021/04/02 08:17:44;;;;;;;57.77;32.63;;;13.40;99.90;;;;;;5085066;28;20176;-75
2021/04/02 08:20:16;;;;;;;60.70;31.87;;;13.40;99.90;;;;;;5075725;28;20197;-75
2021/04/02 08:22:42;;;;;;;54.60;32.43;;;13.40;99.90;;;;;;5084646;28;20182;-74
2021/04/02 08:25:12;;;;;;;53.70;31.63;;;13.50;99.90;;;;;;5077576;28;20177;-74
2021/04/02 08:27:38;;;;;;;55.60;31.97;;;13.60;99.90;;;;;;5072859;28;20233;-77
2021/04/02 08:30:06;;;;;;;52.83;31.90;;;13.70;99.90;;;;;;5086308;28;20196;-74
2021/04/02 08:32:41;;;;;;;55.33;32.37;;;13.70;99.90;;;;;;5064357;28;20198;-75
2021/04/02 08:35:08;;;;;;;60.70;33.23;;;13.70;99.90;;;;;;5065280;28;20264;-77
2021/04/02 08:37:35;;;;;;;55.63;31.57;;;13.70;99.90;;;;;;5076704;28;20168;-78
2021/04/02 08:40:05;;;;;;;55.40;32.93;;;13.80;99.90;;;;;;5076271;28;20203;-77
2021/04/02 08:42:31;;;;;;;58.73;33.80;;;13.90;99.90;;;;;;5072220;28;20232;-77
2021/04/02 08:45:04;;;;;;;60.83;32.80;;;13.90;99.90;;;;;;5071844;28;20259;-77
2021/04/02 08:47:29;;;;;;;59.17;32.60;;;13.90;99.90;;;;;;5071933;28;20552;-77
2021/04/02 08:49:55;;;;;;;52.83;31.53;;;14.00;99.90;;;;;;5073136;28;20194;-77
2021/04/02 08:52:30;;;;;;;54.10;32.43;;;14.10;99.90;;;;;;5055123;28;20774;-77
2021/04/02 08:54:59;;;;;;;53.23;31.57;;;14.30;99.90;;;;;;5073333;28;20218;-77
2021/04/02 08:57:30;;;;;;;52.60;31.57;;;14.30;99.90;;;;;;5071750;28;20169;-77
2021/04/02 08:59:56;;;;;;;49.70;30.40;;;14.40;99.90;;;;;;5072436;28;20209;-73
2021/04/02 09:02:28;;;;;;;53.53;31.13;;;14.50;99.90;;;;;;5073494;28;20252;-73
2021/04/02 09:04:54;;;;;;;53.33;29.90;;;14.60;99.90;;;;;;5065564;28;20561;-73
2021/04/02 09:07:20;;;;;;;54.00;30.43;;;14.70;99.90;;;;;;5066412;28;20678;-73
2021/04/02 09:09:47;;;;;;;51.27;29.93;;;14.70;99.90;;;;;;5062371;28;20193;-73
2021/04/02 09:12:18;;;;;;;50.73;31.00;;;14.80;99.90;;;;;;5061188;28;20181;-73
2021/04/02 09:14:49;;;;;;;52.63;32.60;;;15.00;99.90;;;;;;5070409;28;20169;-73
2021/04/02 09:17:22;;;;;;;49.93;29.37;;;14.90;99.90;;;;;;5063452;28;20272;-74
2021/04/02 09:19:48;;;;;;;52.17;30.67;;;14.90;99.90;;;;;;5070088;28;20272;-74
2021/04/02 09:22:14;;;;;;;52.67;31.07;;;15.00;99.90;;;;;;5071513;28;20561;-73
2021/04/02 09:24:42;;;;;;;48.50;30.10;;;15.00;99.90;;;;;;5072756;28;20608;-73
2021/04/02 09:27:11;;;;;;;48.13;31.07;;;15.20;99.90;;;;;;5072563;28;20648;-73
2021/04/02 09:29:36;;;;;;;47.60;30.03;;;15.30;99.90;;;;;;5074393;28;20280;-73
2021/04/02 09:32:04;;;;;;;52.80;31.17;;;15.30;99.90;;;;;;5076888;28;20180;-74
2021/04/02 09:34:31;;;;;;;57.10;32.53;;;15.30;99.90;;;;;;5075639;28;20185;-74
2021/04/02 09:36:57;;;;;;;47.87;29.33;;;15.40;99.90;;;;;;5076515;28;20173;-73
2021/04/02 09:39:29;;;;;;;53.47;30.37;;;15.40;99.90;;;;;;5076276;28;20225;-73
2021/04/02 09:41:59;;;;;;;53.13;31.67;;;15.40;99.90;;;;;;5076337;28;20270;-73
2021/04/02 09:44:39;;;;;;;47.50;30.40;;;15.50;99.90;;;;;;5076741;28;20521;-74
2021/04/02 09:47:11;;;;;;;49.07;30.03;;;15.60;99.90;;;;;;5064674;28;20180;-74
2021/04/02 09:49:37;;;;;;;49.23;29.87;;;15.70;99.90;;;;;;5085871;28;20193;-74
2021/04/02 09:52:04;;;;;;;54.47;29.77;;;15.90;99.90;;;;;;5076130;28;20187;-73
2021/04/02 09:54:31;;;;;;;51.80;30.63;;;15.80;99.90;;;;;;5078897;28;20177;-74
2021/04/02 09:56:59;;;;;;;48.50;28.83;;;15.90;99.90;;;;;;5081337;28;20548;-73
2021/04/02 09:59:25;;;;;;;58.30;31.30;;;16.00;99.90;;;;;;5075467;28;20624;-74
2021/04/02 10:01:51;;;;;;;51.47;30.90;;;16.00;99.90;;;;;;5075940;28;20197;-74
2021/04/02 10:04:18;;;;;;;52.00;30.17;;;16.10;99.90;;;;;;5075352;28;20203;-73
2021/04/02 10:06:44;;;;;;;51.27;31.03;;;16.10;99.90;;;;;;5069637;28;20180;-72
2021/04/02 10:09:11;;;;;;;53.67;30.10;;;16.10;99.90;;;;;;5068257;28;20712;-73
2021/04/02 10:11:38;;;;;;;46.30;29.50;;;16.00;99.90;;;;;;5070084;28;21511;-73
2021/04/02 10:14:05;;;;;;;46.03;28.70;;;16.10;99.90;;;;;;5065573;28;20188;-73
2021/04/02 10:16:31;;;;;;;47.97;27.60;;;16.20;99.90;;;;;;5060016;28;20651;-73
2021/04/02 10:18:57;;;;;;;47.20;28.53;;;16.30;99.90;;;;;;5066027;28;20204;-73
2021/04/02 10:21:24;;;;;;;41.90;28.00;;;16.60;99.90;;;;;;5074965;28;20690;-73
2021/04/02 10:23:51;;;;;;;43.13;27.53;;;16.70;99.90;;;;;;5063620;28;20184;-73
2021/04/02 10:26:18;;;;;;;40.07;26.57;;;16.80;99.90;;;;;;5075323;28;20222;-73
2021/04/02 10:28:44;;;;;;;44.00;25.80;;;16.80;99.90;;;;;;5062672;28;20201;-73
2021/04/02 10:31:10;;;;;;;47.60;26.77;;;16.90;99.90;;;;;;5058025;28;20223;-74
2021/04/02 10:33:36;;;;;;;52.07;27.83;;;17.00;99.90;;;;;;5068508;28;20531;-74
2021/04/02 10:36:02;;;;;;;47.13;27.50;;;17.10;99.90;;;;;;5057421;28;20188;-74
2021/04/02 10:38:28;;;;;;;43.13;27.40;;;17.30;99.90;;;;;;5063978;28;20240;-73
2021/04/02 10:40:54;;;;;;;45.70;25.97;;;17.40;99.90;;;;;;5064542;28;20225;-73
2021/04/02 10:43:21;;;;;;;43.57;25.23;;;17.40;99.90;;;;;;5072818;28;20177;-74
2021/04/02 10:45:47;;;;;;;45.50;26.00;;;17.60;99.90;;;;;;5067720;28;20180;-74
2021/04/02 10:48:13;;;;;;;48.30;28.13;;;17.80;99.90;;;;;;5065580;28;20207;-74
2021/04/02 10:50:41;;;;;;;43.23;25.53;;;17.90;99.90;;;;;;5064132;28;20644;-74
2021/04/02 10:53:07;;;;;;;42.27;25.93;;;17.80;99.90;;;;;;5054890;28;20260;-74
2021/04/02 10:55:33;;;;;;;46.80;26.17;;;17.90;99.90;;;;;;5063691;28;20182;-74
2021/04/02 10:57:59;;;;;;;46.37;27.83;;;17.90;99.90;;;;;;5068067;28;20609;-73
2021/04/02 11:00:26;;;;;;;46.33;25.30;;;17.80;99.90;;;;;;5059337;28;20550;-74
2021/04/02 11:02:52;;;;;;;40.27;24.17;;;17.70;99.90;;;;;;5054086;28;20173;-74
2021/04/02 11:05:20;;;;;;;42.13;25.50;;;17.90;99.90;;;;;;5052836;28;20227;-73
2021/04/02 11:07:46;;;;;;;45.43;26.47;;;18.20;99.90;;;;;;5068911;28;20170;-74
2021/04/02 11:10:13;;;;;;;40.90;24.37;;;18.20;99.90;;;;;;5053674;28;20224;-73
2021/04/02 11:12:40;;;;;;;45.10;24.73;;;18.30;99.90;;;;;;5055378;28;20166;-73
2021/04/02 11:15:08;;;;;;;41.27;23.87;;;18.40;99.90;;;;;;5058917;28;20179;-75
2021/04/02 11:17:34;;;;;;;44.53;24.53;;;18.60;99.90;;;;;;5068743;28;20513;-74
2021/04/02 11:20:00;;;;;;;39.83;23.07;;;18.70;99.90;;;;;;5062392;28;20207;-73
2021/04/02 11:22:25;;;;;;;39.63;22.90;;;18.70;99.90;;;;;;5073365;28;20180;-74
2021/04/02 11:24:54;;;;;;;52.13;23.40;;;18.80;99.90;;;;;;5073681;28;20173;-74
2021/04/02 11:27:21;;;;;;;37.17;23.30;;;19.00;99.90;;;;;;5064085;28;20173;-74
2021/04/02 11:29:47;;;;;;;38.50;23.17;;;19.20;99.90;;;;;;5055606;28;20568;-73
2021/04/02 11:32:14;;;;;;;39.97;23.37;;;19.20;99.90;;;;;;5074668;28;20181;-79
2021/04/02 11:34:42;;;;;;;37.70;22.73;;;19.20;99.90;;;;;;5077428;28;20184;-79
2021/04/02 11:37:08;;;;;;;43.80;23.10;;;19.40;99.90;;;;;;5078530;28;20212;-78
2021/04/02 11:39:34;;;;;;;35.77;22.50;;;19.50;99.90;;;;;;5077817;28;20200;-79
2021/04/02 11:42:00;;;;;;;36.97;22.50;;;19.50;99.90;;;;;;5078868;28;20687;-79
2021/04/02 11:44:26;;;;;;;38.87;24.60;;;19.40;99.90;;;;;;5066462;28;20591;-79
2021/04/02 11:46:52;;;;;;;37.37;21.80;;;19.40;99.90;;;;;;5072591;28;20184;-78
2021/04/02 11:49:18;;;;;;;44.03;23.13;;;19.50;99.90;;;;;;5064305;28;20219;-78
2021/04/02 11:51:45;;;;;;;37.67;22.63;;;19.40;99.90;;;;;;5075990;28;20177;-78
2021/04/02 11:54:11;;;;;;;38.40;22.97;;;19.50;99.90;;;;;;5065749;28;20177;-78
2021/04/02 11:56:37;;;;;;;37.50;22.67;;;19.50;99.90;;;;;;5070685;28;20188;-80
2021/04/02 11:59:03;;;;;;;42.43;22.77;;;19.40;99.90;;;;;;5077842;28;20212;-78
2021/04/02 12:01:28;;;;;;;40.67;23.77;;;19.70;99.90;;;;;;5079361;28;20203;-79
2021/04/02 12:03:55;;;;;;;40.23;23.33;;;19.70;99.90;;;;;;5081889;28;20177;-78
2021/04/02 12:06:22;;;;;;;38.90;22.97;;;19.60;99.90;;;;;;5080237;28;20194;-78
2021/04/02 12:08:47;;;;;;;38.60;23.93;;;19.70;99.90;;;;;;5078364;28;20197;-79
2021/04/02 12:11:13;;;;;;;41.17;23.40;;;19.60;99.90;;;;;;5079923;28;20689;-79
2021/04/02 12:13:39;;;;;;;43.30;22.43;;;19.50;99.90;;;;;;5079695;28;20184;-78
2021/04/02 12:16:05;;;;;;;33.90;21.70;;;19.60;99.90;;;;;;5078575;28;20237;-78
2021/04/02 12:18:30;;;;;;;37.47;22.80;;;19.60;99.90;;;;;;5080071;28;20270;-79
2021/04/02 12:20:56;;;;;;;36.47;21.33;;;19.60;99.90;;;;;;5079849;28;20598;-79
2021/04/02 12:23:22;;;;;;;36.83;21.53;;;19.70;99.90;;;;;;5079593;28;20205;-78
2021/04/02 12:25:48;;;;;;;40.93;21.37;;;19.70;99.90;;;;;;5079550;28;20525;-78
2021/04/02 12:28:13;;;;;;;36.83;20.37;;;19.60;99.90;;;;;;5079464;28;20197;-80
2021/04/02 12:30:39;;;;;;;41.93;19.83;;;19.50;99.90;;;;;;5079108;28;20173;-78
2021/04/02 12:33:06;;;;;;;37.53;20.73;;;19.50;99.90;;;;;;5078032;28;20588;-78
2021/04/02 12:35:33;;;;;;;39.53;20.60;;;19.50;99.90;;;;;;5078791;28;20180;-79
2021/04/02 12:37:59;;;;;;;38.03;21.07;;;19.50;99.90;;;;;;5079589;28;20650;-78